sensor_id;sensor_type;location;lat;lon;timestamp;temperature;humidity
56002;DHT22;41886;45.688;11.512;2022-10-13T00:00:40;15.60;99.90
56002;DHT22;41886;45.688;11.512;2022-10-13T00:03:06;15.40;99.90
56002;DHT22;41886;45.688;11.512;2022-10-13T00:11:38;15.40;99.90
56002;DHT22;41886;45.688;11.512;2022-10-13T00:14:04;15.30;99.90
56002;DHT22;41886;45.688;11.512;2022-10-13T00:16:30;15.20;99.90
56002;DHT22;41886;45.688;11.512;2022-10-13T00:18:56;15.20;99.90
56002;DHT22;41886;45.688;11.512;2022-10-13T00:21:23;15.20;99.90
56002;DHT22;41886;45.688;11.512;2022-10-13T00:23:50;15.20;99.90
56002;DHT22;41886;45.688;11.512;2022-10-13T00:26:16;15.10;99.90
56002;DHT22;41886;45.688;11.512;2022-10-13T00:28:43;15.00;99.90
56002;DHT22;41886;45.688;11.512;2022-10-13T00:31:18;15.00;99.90
56002;DHT22;41886;45.688;11.512;2022-10-13T00:33:45;15.00;99.90
56002;DHT22;41886;45.688;11.512;2022-10-13T00:36:10;15.00;99.90
56002;DHT22;41886;45.688;11.512;2022-10-13T00:38:36;15.20;99.90
56002;DHT22;41886;45.688;11.512;2022-10-13T00:41:05;15.40;99.90
56002;DHT22;41886;45.688;11.512;2022-10-13T00:43:51;15.50;99.90
56002;DHT22;41886;45.688;11.512;2022-10-13T00:46:20;15.50;99.90
56002;DHT22;41886;45.688;11.512;2022-10-13T00:48:53;15.50;99.90
56002;DHT22;41886;45.688;11.512;2022-10-13T00:51:23;15.30;99.90
56002;DHT22;41886;45.688;11.512;2022-10-13T00:53:53;15.30;99.90
56002;DHT22;41886;45.688;11.512;2022-10-13T00:56:27;15.30;99.90
56002;DHT22;41886;45.688;11.512;2022-10-13T00:58:53;15.20;99.90
56002;DHT22;41886;45.688;11.512;2022-10-13T01:01:23;15.20;99.90
56002;DHT22;41886;45.688;11.512;2022-10-13T01:03:51;15.00;99.90
56002;DHT22;41886;45.688;11.512;2022-10-13T01:06:26;15.00;99.90
56002;DHT22;41886;45.688;11.512;2022-10-13T01:08:53;15.10;99.90
56002;DHT22;41886;45.688;11.512;2022-10-13T01:14:22;15.00;99.90
56002;DHT22;41886;45.688;11.512;2022-10-13T01:27:24;14.60;99.90
56002;DHT22;41886;45.688;11.512;2022-10-13T01:33:03;14.50;99.90
56002;DHT22;41886;45.688;11.512;2022-10-13T01:35:40;14.30;99.90
56002;DHT22;41886;45.688;11.512;2022-10-13T01:38:23;14.40;99.90
56002;DHT22;41886;45.688;11.512;2022-10-13T01:40:58;14.40;99.90
56002;DHT22;41886;45.688;11.512;2022-10-13T01:43:34;14.20;99.90
56002;DHT22;41886;45.688;11.512;2022-10-13T01:46:04;14.20;99.90
56002;DHT22;41886;45.688;11.512;2022-10-13T01:48:32;14.20;99.90
56002;DHT22;41886;45.688;11.512;2022-10-13T01:50:59;14.20;99.90
56002;DHT22;41886;45.688;11.512;2022-10-13T01:53:25;14.30;99.90
56002;DHT22;41886;45.688;11.512;2022-10-13T01:55:53;14.10;99.90
56002;DHT22;41886;45.688;11.512;2022-10-13T01:58:19;14.00;99.90
56002;DHT22;41886;45.688;11.512;2022-10-13T02:00:59;14.10;99.90
56002;DHT22;41886;45.688;11.512;2022-10-13T02:11:10;14.20;99.90
56002;DHT22;41886;45.688;11.512;2022-10-13T02:13:39;14.10;99.90
56002;DHT22;41886;45.688;11.512;2022-10-13T02:16:07;14.00;99.90
56002;DHT22;41886;45.688;11.512;2022-10-13T02:18:33;13.90;99.90
56002;DHT22;41886;45.688;11.512;2022-10-13T02:21:00;13.80;99.90
56002;DHT22;41886;45.688;11.512;2022-10-13T02:23:27;13.80;99.90
56002;DHT22;41886;45.688;11.512;2022-10-13T02:25:54;13.80;99.90
56002;DHT22;41886;45.688;11.512;2022-10-13T02:28:21;13.80;99.90
56002;DHT22;41886;45.688;11.512;2022-10-13T02:30:48;13.80;99.90
56002;DHT22;41886;45.688;11.512;2022-10-13T02:33:14;13.90;99.90
56002;DHT22;41886;45.688;11.512;2022-10-13T02:35:40;14.00;99.90
56002;DHT22;41886;45.688;11.512;2022-10-13T02:38:06;14.00;99.90
56002;DHT22;41886;45.688;11.512;2022-10-13T02:40:32;13.90;99.90
56002;DHT22;41886;45.688;11.512;2022-10-13T02:42:58;14.00;99.90
56002;DHT22;41886;45.688;11.512;2022-10-13T02:48:08;13.70;99.90
56002;DHT22;41886;45.688;11.512;2022-10-13T02:50:36;13.70;99.90
56002;DHT22;41886;45.688;11.512;2022-10-13T02:53:03;13.80;99.90
56002;DHT22;41886;45.688;11.512;2022-10-13T02:55:29;13.90;99.90
56002;DHT22;41886;45.688;11.512;2022-10-13T02:57:55;13.70;99.90
56002;DHT22;41886;45.688;11.512;2022-10-13T03:00:21;13.50;99.90
56002;DHT22;41886;45.688;11.512;2022-10-13T03:02:47;13.50;99.90
56002;DHT22;41886;45.688;11.512;2022-10-13T03:05:20;13.50;99.90
56002;DHT22;41886;45.688;11.512;2022-10-13T03:07:46;13.50;99.90
56002;DHT22;41886;45.688;11.512;2022-10-13T03:10:12;13.30;99.90
56002;DHT22;41886;45.688;11.512;2022-10-13T03:12:38;13.40;99.90
56002;DHT22;41886;45.688;11.512;2022-10-13T03:15:04;13.40;99.90
56002;DHT22;41886;45.688;11.512;2022-10-13T03:17:31;13.50;99.90
56002;DHT22;41886;45.688;11.512;2022-10-13T03:19:57;13.40;99.90
56002;DHT22;41886;45.688;11.512;2022-10-13T03:22:23;13.20;99.90
56002;DHT22;41886;45.688;11.512;2022-10-13T03:24:49;13.10;99.90
56002;DHT22;41886;45.688;11.512;2022-10-13T03:27:15;13.20;99.90
56002;DHT22;41886;45.688;11.512;2022-10-13T03:29:41;13.10;99.90
56002;DHT22;41886;45.688;11.512;2022-10-13T03:32:07;13.10;99.90
56002;DHT22;41886;45.688;11.512;2022-10-13T03:34:33;13.00;99.90
56002;DHT22;41886;45.688;11.512;2022-10-13T03:36:59;13.20;99.90
56002;DHT22;41886;45.688;11.512;2022-10-13T03:39:25;13.20;99.90
56002;DHT22;41886;45.688;11.512;2022-10-13T03:41:51;13.20;99.90
56002;DHT22;41886;45.688;11.512;2022-10-13T03:44:17;13.10;99.90
56002;DHT22;41886;45.688;11.512;2022-10-13T03:46:43;12.90;99.90
56002;DHT22;41886;45.688;11.512;2022-10-13T03:49:10;13.00;99.90
56002;DHT22;41886;45.688;11.512;2022-10-13T03:51:36;13.10;99.90
56002;DHT22;41886;45.688;11.512;2022-10-13T03:54:10;13.10;99.90
56002;DHT22;41886;45.688;11.512;2022-10-13T03:56:37;13.20;99.90
56002;DHT22;41886;45.688;11.512;2022-10-13T03:59:03;13.30;99.90
56002;DHT22;41886;45.688;11.512;2022-10-13T04:01:30;13.30;99.90
56002;DHT22;41886;45.688;11.512;2022-10-13T04:03:58;13.40;99.90
56002;DHT22;41886;45.688;11.512;2022-10-13T04:06:24;13.30;99.90
56002;DHT22;41886;45.688;11.512;2022-10-13T04:08:51;13.40;99.90
56002;DHT22;41886;45.688;11.512;2022-10-13T04:11:17;13.40;99.90
56002;DHT22;41886;45.688;11.512;2022-10-13T04:13:45;13.40;99.90
56002;DHT22;41886;45.688;11.512;2022-10-13T04:16:22;13.40;99.90
56002;DHT22;41886;45.688;11.512;2022-10-13T04:18:49;13.40;99.90
56002;DHT22;41886;45.688;11.512;2022-10-13T04:21:20;13.40;99.90
56002;DHT22;41886;45.688;11.512;2022-10-13T04:23:48;13.30;99.90
56002;DHT22;41886;45.688;11.512;2022-10-13T04:26:17;13.00;99.90
56002;DHT22;41886;45.688;11.512;2022-10-13T04:28:46;13.10;99.90
56002;DHT22;41886;45.688;11.512;2022-10-13T04:31:13;13.20;99.90
56002;DHT22;41886;45.688;11.512;2022-10-13T04:33:40;13.30;99.90
56002;DHT22;41886;45.688;11.512;2022-10-13T04:36:07;13.30;99.90
56002;DHT22;41886;45.688;11.512;2022-10-13T04:38:34;13.30;99.90
56002;DHT22;41886;45.688;11.512;2022-10-13T04:41:04;13.10;99.90
56002;DHT22;41886;45.688;11.512;2022-10-13T04:43:33;13.10;99.90
56002;DHT22;41886;45.688;11.512;2022-10-13T04:48:27;13.20;99.90
56002;DHT22;41886;45.688;11.512;2022-10-13T04:51:03;13.10;99.90
56002;DHT22;41886;45.688;11.512;2022-10-13T04:53:30;13.10;99.90
56002;DHT22;41886;45.688;11.512;2022-10-13T04:55:59;13.10;99.90
56002;DHT22;41886;45.688;11.512;2022-10-13T04:58:25;13.00;99.90
56002;DHT22;41886;45.688;11.512;2022-10-13T05:00:51;13.00;99.90
56002;DHT22;41886;45.688;11.512;2022-10-13T05:03:17;13.10;99.90
56002;DHT22;41886;45.688;11.512;2022-10-13T05:05:43;13.00;99.90
56002;DHT22;41886;45.688;11.512;2022-10-13T05:08:09;13.00;99.90
56002;DHT22;41886;45.688;11.512;2022-10-13T05:10:35;12.90;99.90
56002;DHT22;41886;45.688;11.512;2022-10-13T05:13:07;12.90;99.90
56002;DHT22;41886;45.688;11.512;2022-10-13T05:15:33;12.70;99.90
56002;DHT22;41886;45.688;11.512;2022-10-13T05:17:58;12.80;99.90
56002;DHT22;41886;45.688;11.512;2022-10-13T05:20:25;12.80;99.90
56002;DHT22;41886;45.688;11.512;2022-10-13T05:22:51;12.70;99.90
56002;DHT22;41886;45.688;11.512;2022-10-13T05:25:17;12.70;99.90
56002;DHT22;41886;45.688;11.512;2022-10-13T05:27:43;12.60;99.90
56002;DHT22;41886;45.688;11.512;2022-10-13T05:30:11;12.70;99.90
56002;DHT22;41886;45.688;11.512;2022-10-13T05:32:37;12.60;99.90
56002;DHT22;41886;45.688;11.512;2022-10-13T05:35:03;12.50;99.90
56002;DHT22;41886;45.688;11.512;2022-10-13T05:37:29;12.50;99.90
56002;DHT22;41886;45.688;11.512;2022-10-13T05:39:55;12.60;99.90
56002;DHT22;41886;45.688;11.512;2022-10-13T05:42:21;12.60;99.90
56002;DHT22;41886;45.688;11.512;2022-10-13T05:44:47;12.70;99.90
56002;DHT22;41886;45.688;11.512;2022-10-13T05:47:12;12.70;99.90
56002;DHT22;41886;45.688;11.512;2022-10-13T05:49:38;12.60;99.90
56002;DHT22;41886;45.688;11.512;2022-10-13T05:52:05;12.60;99.90
56002;DHT22;41886;45.688;11.512;2022-10-13T05:54:39;12.60;99.90
56002;DHT22;41886;45.688;11.512;2022-10-13T05:57:10;12.70;99.90
56002;DHT22;41886;45.688;11.512;2022-10-13T05:59:40;12.80;99.90
56002;DHT22;41886;45.688;11.512;2022-10-13T06:02:08;12.80;99.90
56002;DHT22;41886;45.688;11.512;2022-10-13T06:04:45;12.80;99.90
56002;DHT22;41886;45.688;11.512;2022-10-13T06:07:12;12.80;99.90
56002;DHT22;41886;45.688;11.512;2022-10-13T06:09:38;13.10;99.90
56002;DHT22;41886;45.688;11.512;2022-10-13T06:12:05;13.30;99.90
56002;DHT22;41886;45.688;11.512;2022-10-13T06:14:31;13.50;99.90
56002;DHT22;41886;45.688;11.512;2022-10-13T06:16:57;13.70;99.90
56002;DHT22;41886;45.688;11.512;2022-10-13T06:19:43;13.70;99.90
56002;DHT22;41886;45.688;11.512;2022-10-13T06:22:09;13.90;99.90
56002;DHT22;41886;45.688;11.512;2022-10-13T06:24:35;13.90;99.90
56002;DHT22;41886;45.688;11.512;2022-10-13T06:27:01;13.90;99.90
56002;DHT22;41886;45.688;11.512;2022-10-13T06:29:27;14.00;99.90
56002;DHT22;41886;45.688;11.512;2022-10-13T06:31:52;14.20;99.90
56002;DHT22;41886;45.688;11.512;2022-10-13T06:34:21;14.30;99.90
56002;DHT22;41886;45.688;11.512;2022-10-13T06:36:47;14.60;99.90
56002;DHT22;41886;45.688;11.512;2022-10-13T06:39:13;14.70;99.90
56002;DHT22;41886;45.688;11.512;2022-10-13T06:41:39;15.00;99.90
56002;DHT22;41886;45.688;11.512;2022-10-13T06:44:05;15.10;99.90
56002;DHT22;41886;45.688;11.512;2022-10-13T06:46:30;15.20;99.90
56002;DHT22;41886;45.688;11.512;2022-10-13T06:48:57;15.40;99.90
56002;DHT22;41886;45.688;11.512;2022-10-13T06:51:23;15.60;99.90
56002;DHT22;41886;45.688;11.512;2022-10-13T06:53:49;15.70;99.90
56002;DHT22;41886;45.688;11.512;2022-10-13T06:56:15;15.90;99.90
56002;DHT22;41886;45.688;11.512;2022-10-13T06:58:41;16.10;99.90
56002;DHT22;41886;45.688;11.512;2022-10-13T07:01:06;16.30;99.90
56002;DHT22;41886;45.688;11.512;2022-10-13T07:03:32;16.50;99.90
56002;DHT22;41886;45.688;11.512;2022-10-13T07:06:01;17.00;99.90
56002;DHT22;41886;45.688;11.512;2022-10-13T07:08:27;17.50;99.90
56002;DHT22;41886;45.688;11.512;2022-10-13T07:10:53;19.50;99.90
56002;DHT22;41886;45.688;11.512;2022-10-13T07:13:19;21.30;99.90
56002;DHT22;41886;45.688;11.512;2022-10-13T07:15:45;22.50;99.90
56002;DHT22;41886;45.688;11.512;2022-10-13T07:18:11;23.80;99.90
56002;DHT22;41886;45.688;11.512;2022-10-13T07:20:37;25.20;99.90
56002;DHT22;41886;45.688;11.512;2022-10-13T07:23:04;26.30;99.90
56002;DHT22;41886;45.688;11.512;2022-10-13T07:25:29;26.70;99.90
56002;DHT22;41886;45.688;11.512;2022-10-13T07:27:56;27.80;99.20
56002;DHT22;41886;45.688;11.512;2022-10-13T07:30:22;28.50;98.10
56002;DHT22;41886;45.688;11.512;2022-10-13T07:32:48;29.40;96.50
56002;DHT22;41886;45.688;11.512;2022-10-13T07:35:14;29.50;95.60
56002;DHT22;41886;45.688;11.512;2022-10-13T07:37:40;30.20;95.30
56002;DHT22;41886;45.688;11.512;2022-10-13T07:40:06;30.90;94.40
56002;DHT22;41886;45.688;11.512;2022-10-13T07:42:32;31.30;93.40
56002;DHT22;41886;45.688;11.512;2022-10-13T07:44:58;31.30;92.90
56002;DHT22;41886;45.688;11.512;2022-10-13T07:47:25;31.90;92.60
56002;DHT22;41886;45.688;11.512;2022-10-13T07:49:50;31.20;92.40
56002;DHT22;41886;45.688;11.512;2022-10-13T07:52:18;32.20;91.70
56002;DHT22;41886;45.688;11.512;2022-10-13T07:54:44;33.10;90.70
56002;DHT22;41886;45.688;11.512;2022-10-13T07:57:11;33.20;90.10
56002;DHT22;41886;45.688;11.512;2022-10-13T07:59:37;33.20;89.60
56002;DHT22;41886;45.688;11.512;2022-10-13T08:02:03;34.00;88.20
56002;DHT22;41886;45.688;11.512;2022-10-13T08:04:29;33.50;87.70
56002;DHT22;41886;45.688;11.512;2022-10-13T08:06:55;33.20;87.40
56002;DHT22;41886;45.688;11.512;2022-10-13T08:09:21;33.40;86.60
56002;DHT22;41886;45.688;11.512;2022-10-13T08:11:47;33.80;86.30
56002;DHT22;41886;45.688;11.512;2022-10-13T08:14:14;34.20;84.30
56002;DHT22;41886;45.688;11.512;2022-10-13T08:16:40;35.50;82.80
56002;DHT22;41886;45.688;11.512;2022-10-13T08:19:11;35.80;81.70
56002;DHT22;41886;45.688;11.512;2022-10-13T08:21:37;36.00;81.10
56002;DHT22;41886;45.688;11.512;2022-10-13T08:24:03;35.20;80.10
56002;DHT22;41886;45.688;11.512;2022-10-13T08:26:29;34.20;81.00
56002;DHT22;41886;45.688;11.512;2022-10-13T08:28:55;35.20;81.00
56002;DHT22;41886;45.688;11.512;2022-10-13T08:31:21;35.40;79.50
56002;DHT22;41886;45.688;11.512;2022-10-13T08:33:47;35.40;79.20
56002;DHT22;41886;45.688;11.512;2022-10-13T08:36:14;34.90;79.50
56002;DHT22;41886;45.688;11.512;2022-10-13T08:38:39;36.30;78.90
56002;DHT22;41886;45.688;11.512;2022-10-13T08:41:19;36.40;77.80
56002;DHT22;41886;45.688;11.512;2022-10-13T08:43:48;36.10;78.20
56002;DHT22;41886;45.688;11.512;2022-10-13T08:46:18;36.60;78.00
56002;DHT22;41886;45.688;11.512;2022-10-13T08:48:46;35.90;78.00
56002;DHT22;41886;45.688;11.512;2022-10-13T08:51:13;36.00;77.20
56002;DHT22;41886;45.688;11.512;2022-10-13T08:53:40;35.70;77.10
56002;DHT22;41886;45.688;11.512;2022-10-13T08:58:36;36.20;77.20
56002;DHT22;41886;45.688;11.512;2022-10-13T09:03:39;36.60;76.20
56002;DHT22;41886;45.688;11.512;2022-10-13T09:08:40;37.10;74.50
56002;DHT22;41886;45.688;11.512;2022-10-13T09:11:11;35.70;74.20
56002;DHT22;41886;45.688;11.512;2022-10-13T09:13:37;37.30;74.80
56002;DHT22;41886;45.688;11.512;2022-10-13T09:16:03;37.80;74.30
56002;DHT22;41886;45.688;11.512;2022-10-13T09:18:31;36.70;73.80
56002;DHT22;41886;45.688;11.512;2022-10-13T09:21:18;36.60;74.80
56002;DHT22;41886;45.688;11.512;2022-10-13T09:23:44;36.90;73.90
56002;DHT22;41886;45.688;11.512;2022-10-13T09:26:23;36.80;74.20
56002;DHT22;41886;45.688;11.512;2022-10-13T09:28:49;37.20;74.10
56002;DHT22;41886;45.688;11.512;2022-10-13T09:31:18;37.90;74.90
56002;DHT22;41886;45.688;11.512;2022-10-13T09:33:46;36.30;74.10
56002;DHT22;41886;45.688;11.512;2022-10-13T09:36:15;36.30;74.30
56002;DHT22;41886;45.688;11.512;2022-10-13T09:38:43;38.30;72.90
56002;DHT22;41886;45.688;11.512;2022-10-13T09:46:23;36.50;72.70
56002;DHT22;41886;45.688;11.512;2022-10-13T09:48:50;36.10;73.40
56002;DHT22;41886;45.688;11.512;2022-10-13T09:53:52;37.00;72.80
56002;DHT22;41886;45.688;11.512;2022-10-13T09:56:19;37.80;73.30
56002;DHT22;41886;45.688;11.512;2022-10-13T09:58:48;37.70;73.40
56002;DHT22;41886;45.688;11.512;2022-10-13T10:01:19;37.30;72.70
56002;DHT22;41886;45.688;11.512;2022-10-13T10:03:46;38.10;72.20
56002;DHT22;41886;45.688;11.512;2022-10-13T10:06:14;38.40;71.90
56002;DHT22;41886;45.688;11.512;2022-10-13T10:11:16;38.30;71.80
56002;DHT22;41886;45.688;11.512;2022-10-13T10:13:42;38.00;71.30
56002;DHT22;41886;45.688;11.512;2022-10-13T10:19:02;37.70;72.10
56002;DHT22;41886;45.688;11.512;2022-10-13T10:24:24;37.30;72.40
56002;DHT22;41886;45.688;11.512;2022-10-13T10:26:53;36.60;72.30
56002;DHT22;41886;45.688;11.512;2022-10-13T10:34:36;33.40;74.00
56002;DHT22;41886;45.688;11.512;2022-10-13T10:42:08;31.80;76.90
56002;DHT22;41886;45.688;11.512;2022-10-13T10:44:40;31.20;77.00
56002;DHT22;41886;45.688;11.512;2022-10-13T10:47:12;30.30;78.30
56002;DHT22;41886;45.688;11.512;2022-10-13T10:49:39;31.50;76.80
56002;DHT22;41886;45.688;11.512;2022-10-13T10:52:07;31.40;77.00
56002;DHT22;41886;45.688;11.512;2022-10-13T11:02:01;30.40;79.00
56002;DHT22;41886;45.688;11.512;2022-10-13T11:19:57;29.50;81.50
56002;DHT22;41886;45.688;11.512;2022-10-13T11:22:24;28.30;83.00
56002;DHT22;41886;45.688;11.512;2022-10-13T11:30:00;27.90;83.20
56002;DHT22;41886;45.688;11.512;2022-10-13T11:34:58;27.90;82.50
56002;DHT22;41886;45.688;11.512;2022-10-13T11:37:26;28.40;82.50
56002;DHT22;41886;45.688;11.512;2022-10-13T11:40:02;28.20;82.60
56002;DHT22;41886;45.688;11.512;2022-10-13T11:45:05;28.50;84.60
56002;DHT22;41886;45.688;11.512;2022-10-13T11:55:44;27.40;85.60
56002;DHT22;41886;45.688;11.512;2022-10-13T12:00:34;26.90;86.10
56002;DHT22;41886;45.688;11.512;2022-10-13T12:03:00;27.00;85.20
56002;DHT22;41886;45.688;11.512;2022-10-13T12:05:26;27.00;85.60
56002;DHT22;41886;45.688;11.512;2022-10-13T12:07:53;26.90;86.30
56002;DHT22;41886;45.688;11.512;2022-10-13T12:10:22;27.10;85.80
56002;DHT22;41886;45.688;11.512;2022-10-13T12:12:49;26.70;86.00
56002;DHT22;41886;45.688;11.512;2022-10-13T12:15:51;26.80;86.70
56002;DHT22;41886;45.688;11.512;2022-10-13T12:18:31;26.60;87.20
56002;DHT22;41886;45.688;11.512;2022-10-13T12:21:03;26.60;87.50
56002;DHT22;41886;45.688;11.512;2022-10-13T12:23:33;26.10;86.80
56002;DHT22;41886;45.688;11.512;2022-10-13T12:25:59;25.90;88.10
56002;DHT22;41886;45.688;11.512;2022-10-13T12:28:27;26.60;87.80
56002;DHT22;41886;45.688;11.512;2022-10-13T12:30:54;26.90;86.40
56002;DHT22;41886;45.688;11.512;2022-10-13T12:33:31;26.50;86.00
56002;DHT22;41886;45.688;11.512;2022-10-13T12:36:15;26.20;87.10
56002;DHT22;41886;45.688;11.512;2022-10-13T12:38:44;26.20;87.90
56002;DHT22;41886;45.688;11.512;2022-10-13T12:41:12;26.10;88.20
56002;DHT22;41886;45.688;11.512;2022-10-13T12:43:39;26.20;88.70
56002;DHT22;41886;45.688;11.512;2022-10-13T12:46:05;26.10;89.80
56002;DHT22;41886;45.688;11.512;2022-10-13T12:48:34;26.40;89.10
56002;DHT22;41886;45.688;11.512;2022-10-13T12:53:39;26.40;88.30
56002;DHT22;41886;45.688;11.512;2022-10-13T12:56:05;26.30;88.20
56002;DHT22;41886;45.688;11.512;2022-10-13T12:58:32;26.40;90.00
56002;DHT22;41886;45.688;11.512;2022-10-13T13:03:32;25.80;89.50
56002;DHT22;41886;45.688;11.512;2022-10-13T13:06:18;25.40;90.00
56002;DHT22;41886;45.688;11.512;2022-10-13T13:08:45;25.60;89.60
56002;DHT22;41886;45.688;11.512;2022-10-13T13:11:22;25.60;88.90
56002;DHT22;41886;45.688;11.512;2022-10-13T13:14:20;25.30;89.70
56002;DHT22;41886;45.688;11.512;2022-10-13T13:16:40;25.30;90.00
56002;DHT22;41886;45.688;11.512;2022-10-13T13:19:19;25.30;90.00
56002;DHT22;41886;45.688;11.512;2022-10-13T13:21:46;25.10;90.20
56002;DHT22;41886;45.688;11.512;2022-10-13T13:24:12;25.20;90.90
56002;DHT22;41886;45.688;11.512;2022-10-13T13:26:38;25.10;91.50
56002;DHT22;41886;45.688;11.512;2022-10-13T13:29:04;25.20;90.80
56002;DHT22;41886;45.688;11.512;2022-10-13T13:31:30;25.40;91.50
56002;DHT22;41886;45.688;11.512;2022-10-13T13:33:56;25.20;90.60
56002;DHT22;41886;45.688;11.512;2022-10-13T13:36:23;25.00;90.40
56002;DHT22;41886;45.688;11.512;2022-10-13T13:38:49;24.80;90.80
56002;DHT22;41886;45.688;11.512;2022-10-13T13:41:15;24.90;91.20
56002;DHT22;41886;45.688;11.512;2022-10-13T13:43:41;24.90;90.90
56002;DHT22;41886;45.688;11.512;2022-10-13T13:46:14;24.90;91.10
56002;DHT22;41886;45.688;11.512;2022-10-13T13:48:41;25.00;91.50
56002;DHT22;41886;45.688;11.512;2022-10-13T13:51:07;25.00;91.10
56002;DHT22;41886;45.688;11.512;2022-10-13T13:53:33;25.00;90.90
56002;DHT22;41886;45.688;11.512;2022-10-13T13:56:00;24.70;90.60
56002;DHT22;41886;45.688;11.512;2022-10-13T13:58:25;24.90;91.00
56002;DHT22;41886;45.688;11.512;2022-10-13T14:00:52;25.00;90.90
56002;DHT22;41886;45.688;11.512;2022-10-13T14:03:17;24.70;91.00
56002;DHT22;41886;45.688;11.512;2022-10-13T14:05:43;24.90;91.20
56002;DHT22;41886;45.688;11.512;2022-10-13T14:08:09;24.70;91.00
56002;DHT22;41886;45.688;11.512;2022-10-13T14:10:37;24.70;91.10
56002;DHT22;41886;45.688;11.512;2022-10-13T14:13:03;24.80;91.20
56002;DHT22;41886;45.688;11.512;2022-10-13T14:15:29;24.90;91.40
56002;DHT22;41886;45.688;11.512;2022-10-13T14:17:55;24.90;91.80
56002;DHT22;41886;45.688;11.512;2022-10-13T14:20:21;24.60;91.80
56002;DHT22;41886;45.688;11.512;2022-10-13T14:22:50;24.50;91.60
56002;DHT22;41886;45.688;11.512;2022-10-13T14:25:16;24.30;91.90
56002;DHT22;41886;45.688;11.512;2022-10-13T14:27:42;24.10;92.00
56002;DHT22;41886;45.688;11.512;2022-10-13T14:30:10;24.10;92.20
56002;DHT22;41886;45.688;11.512;2022-10-13T14:32:36;24.20;92.20
56002;DHT22;41886;45.688;11.512;2022-10-13T14:35:08;24.10;92.10
56002;DHT22;41886;45.688;11.512;2022-10-13T14:37:34;23.80;92.20
56002;DHT22;41886;45.688;11.512;2022-10-13T14:40:00;23.80;92.60
56002;DHT22;41886;45.688;11.512;2022-10-13T14:42:25;23.80;92.80
56002;DHT22;41886;45.688;11.512;2022-10-13T14:44:51;23.80;92.80
56002;DHT22;41886;45.688;11.512;2022-10-13T14:47:17;23.70;93.20
56002;DHT22;41886;45.688;11.512;2022-10-13T14:49:44;23.80;94.20
56002;DHT22;41886;45.688;11.512;2022-10-13T14:52:09;23.70;93.50
56002;DHT22;41886;45.688;11.512;2022-10-13T14:54:35;23.80;93.80
56002;DHT22;41886;45.688;11.512;2022-10-13T14:57:01;23.90;94.20
56002;DHT22;41886;45.688;11.512;2022-10-13T14:59:31;23.90;93.50
56002;DHT22;41886;45.688;11.512;2022-10-13T15:01:56;23.90;93.30
56002;DHT22;41886;45.688;11.512;2022-10-13T15:04:23;23.80;93.40
56002;DHT22;41886;45.688;11.512;2022-10-13T15:06:49;23.80;93.30
56002;DHT22;41886;45.688;11.512;2022-10-13T15:09:15;23.80;93.80
56002;DHT22;41886;45.688;11.512;2022-10-13T15:11:40;23.70;94.10
56002;DHT22;41886;45.688;11.512;2022-10-13T15:14:06;23.70;94.30
56002;DHT22;41886;45.688;11.512;2022-10-13T15:16:33;23.60;94.70
56002;DHT22;41886;45.688;11.512;2022-10-13T15:18:59;23.50;94.70
56002;DHT22;41886;45.688;11.512;2022-10-13T15:21:25;23.40;94.80
56002;DHT22;41886;45.688;11.512;2022-10-13T15:23:52;23.40;94.90
56002;DHT22;41886;45.688;11.512;2022-10-13T15:26:18;23.30;95.20
56002;DHT22;41886;45.688;11.512;2022-10-13T15:28:45;23.30;95.30
56002;DHT22;41886;45.688;11.512;2022-10-13T15:31:12;23.20;95.60
56002;DHT22;41886;45.688;11.512;2022-10-13T15:33:38;23.10;95.60
56002;DHT22;41886;45.688;11.512;2022-10-13T15:36:07;23.00;96.70
56002;DHT22;41886;45.688;11.512;2022-10-13T15:38:33;22.90;96.30
56002;DHT22;41886;45.688;11.512;2022-10-13T15:40:59;22.90;96.70
56002;DHT22;41886;45.688;11.512;2022-10-13T15:43:26;22.80;96.70
56002;DHT22;41886;45.688;11.512;2022-10-13T15:45:56;22.60;97.60
56002;DHT22;41886;45.688;11.512;2022-10-13T15:48:24;22.40;97.70
56002;DHT22;41886;45.688;11.512;2022-10-13T15:50:50;22.50;97.70
56002;DHT22;41886;45.688;11.512;2022-10-13T15:53:16;22.50;97.00
56002;DHT22;41886;45.688;11.512;2022-10-13T15:55:42;22.50;97.00
56002;DHT22;41886;45.688;11.512;2022-10-13T15:58:08;22.40;97.90
56002;DHT22;41886;45.688;11.512;2022-10-13T16:00:34;22.20;98.40
56002;DHT22;41886;45.688;11.512;2022-10-13T16:03:00;22.20;98.50
56002;DHT22;41886;45.688;11.512;2022-10-13T16:05:28;22.10;99.00
56002;DHT22;41886;45.688;11.512;2022-10-13T16:07:54;22.10;99.60
56002;DHT22;41886;45.688;11.512;2022-10-13T16:10:20;22.10;99.90
56002;DHT22;41886;45.688;11.512;2022-10-13T16:13:14;22.00;99.90
56002;DHT22;41886;45.688;11.512;2022-10-13T16:15:40;21.70;99.90
56002;DHT22;41886;45.688;11.512;2022-10-13T16:18:06;21.70;99.90
56002;DHT22;41886;45.688;11.512;2022-10-13T16:20:32;21.60;99.90
56002;DHT22;41886;45.688;11.512;2022-10-13T16:23:01;21.30;99.90
56002;DHT22;41886;45.688;11.512;2022-10-13T16:25:28;21.30;99.90
56002;DHT22;41886;45.688;11.512;2022-10-13T16:27:53;21.40;99.90
56002;DHT22;41886;45.688;11.512;2022-10-13T16:30:19;21.40;99.90
56002;DHT22;41886;45.688;11.512;2022-10-13T16:32:51;21.30;99.90
56002;DHT22;41886;45.688;11.512;2022-10-13T16:35:18;21.30;99.90
56002;DHT22;41886;45.688;11.512;2022-10-13T16:37:43;21.10;99.90
56002;DHT22;41886;45.688;11.512;2022-10-13T16:40:09;21.10;99.90
56002;DHT22;41886;45.688;11.512;2022-10-13T16:42:35;21.00;99.90
56002;DHT22;41886;45.688;11.512;2022-10-13T16:45:01;20.80;99.90
56002;DHT22;41886;45.688;11.512;2022-10-13T16:47:27;20.60;99.90
56002;DHT22;41886;45.688;11.512;2022-10-13T16:49:53;20.60;99.90
56002;DHT22;41886;45.688;11.512;2022-10-13T16:52:19;20.50;99.90
56002;DHT22;41886;45.688;11.512;2022-10-13T16:54:45;20.50;99.90
56002;DHT22;41886;45.688;11.512;2022-10-13T16:57:11;20.40;99.90
56002;DHT22;41886;45.688;11.512;2022-10-13T16:59:36;20.30;99.90
56002;DHT22;41886;45.688;11.512;2022-10-13T17:02:02;20.30;99.90
56002;DHT22;41886;45.688;11.512;2022-10-13T17:04:29;20.10;99.90
56002;DHT22;41886;45.688;11.512;2022-10-13T17:06:55;20.10;99.90
56002;DHT22;41886;45.688;11.512;2022-10-13T17:09:21;20.10;99.90
56002;DHT22;41886;45.688;11.512;2022-10-13T17:11:47;20.10;99.90
56002;DHT22;41886;45.688;11.512;2022-10-13T17:14:13;19.90;99.90
56002;DHT22;41886;45.688;11.512;2022-10-13T17:16:45;20.00;99.90